sensor_id;sensor_type;location;lat;lon;timestamp;P1;durP1;ratioP1;P2;durP2;ratioP2
83362;SDS011;73275;50.882;5.984;2023-12-04T00:00:36;8.85;;;3.60;;
83362;SDS011;73275;50.882;5.984;2023-12-04T00:03:02;12.97;;;3.33;;
83362;SDS011;73275;50.882;5.984;2023-12-04T00:05:27;8.55;;;3.58;;
83362;SDS011;73275;50.882;5.984;2023-12-04T00:07:53;9.13;;;3.63;;
83362;SDS011;73275;50.882;5.984;2023-12-04T00:10:19;8.20;;;3.30;;
83362;SDS011;73275;50.882;5.984;2023-12-04T00:12:45;7.43;;;3.25;;
83362;SDS011;73275;50.882;5.984;2023-12-04T00:15:10;8.57;;;3.93;;
83362;SDS011;73275;50.882;5.984;2023-12-04T00:17:36;7.77;;;3.20;;
83362;SDS011;73275;50.882;5.984;2023-12-04T00:20:05;6.15;;;2.75;;
83362;SDS011;73275;50.882;5.984;2023-12-04T00:22:31;6.85;;;2.60;;
83362;SDS011;73275;50.882;5.984;2023-12-04T00:24:57;7.70;;;2.83;;
83362;SDS011;73275;50.882;5.984;2023-12-04T00:27:22;7.77;;;3.30;;
83362;SDS011;73275;50.882;5.984;2023-12-04T00:29:51;9.45;;;3.60;;
83362;SDS011;73275;50.882;5.984;2023-12-04T00:32:17;9.25;;;3.42;;
83362;SDS011;73275;50.882;5.984;2023-12-04T00:34:43;7.70;;;3.47;;
83362;SDS011;73275;50.882;5.984;2023-12-04T00:37:08;9.07;;;3.23;;
83362;SDS011;73275;50.882;5.984;2023-12-04T00:39:33;8.27;;;3.63;;
83362;SDS011;73275;50.882;5.984;2023-12-04T00:41:59;7.53;;;3.37;;
83362;SDS011;73275;50.882;5.984;2023-12-04T00:44:24;8.43;;;3.60;;
83362;SDS011;73275;50.882;5.984;2023-12-04T00:46:49;7.53;;;3.60;;
83362;SDS011;73275;50.882;5.984;2023-12-04T00:49:15;9.03;;;3.57;;
83362;SDS011;73275;50.882;5.984;2023-12-04T00:51:40;8.90;;;3.63;;
83362;SDS011;73275;50.882;5.984;2023-12-04T00:54:06;8.70;;;3.23;;
83362;SDS011;73275;50.882;5.984;2023-12-04T00:56:31;9.27;;;3.33;;
83362;SDS011;73275;50.882;5.984;2023-12-04T00:58:56;10.43;;;4.00;;
83362;SDS011;73275;50.882;5.984;2023-12-04T01:01:22;4.55;;;2.20;;
83362;SDS011;73275;50.882;5.984;2023-12-04T01:03:48;7.60;;;3.30;;
83362;SDS011;73275;50.882;5.984;2023-12-04T01:06:20;7.00;;;2.77;;
83362;SDS011;73275;50.882;5.984;2023-12-04T01:08:47;7.72;;;3.38;;
83362;SDS011;73275;50.882;5.984;2023-12-04T01:11:13;7.30;;;3.07;;
83362;SDS011;73275;50.882;5.984;2023-12-04T01:13:39;9.25;;;3.42;;
83362;SDS011;73275;50.882;5.984;2023-12-04T01:16:05;7.50;;;3.37;;
83362;SDS011;73275;50.882;5.984;2023-12-04T01:18:31;8.02;;;3.83;;
83362;SDS011;73275;50.882;5.984;2023-12-04T01:20:56;11.20;;;4.33;;
83362;SDS011;73275;50.882;5.984;2023-12-04T01:23:21;7.70;;;3.23;;
83362;SDS011;73275;50.882;5.984;2023-12-04T01:25:47;8.43;;;3.13;;
83362;SDS011;73275;50.882;5.984;2023-12-04T01:28:12;7.73;;;3.27;;
83362;SDS011;73275;50.882;5.984;2023-12-04T01:30:39;8.18;;;3.30;;
83362;SDS011;73275;50.882;5.984;2023-12-04T01:33:04;6.93;;;3.33;;
83362;SDS011;73275;50.882;5.984;2023-12-04T01:35:30;8.57;;;3.53;;
83362;SDS011;73275;50.882;5.984;2023-12-04T01:37:55;7.23;;;3.27;;
83362;SDS011;73275;50.882;5.984;2023-12-04T01:40:20;8.13;;;3.43;;
83362;SDS011;73275;50.882;5.984;2023-12-04T01:42:46;8.45;;;3.40;;
83362;SDS011;73275;50.882;5.984;2023-12-04T01:45:11;8.23;;;3.30;;
83362;SDS011;73275;50.882;5.984;2023-12-04T01:47:37;7.50;;;3.17;;
83362;SDS011;73275;50.882;5.984;2023-12-04T01:50:03;7.05;;;3.10;;
83362;SDS011;73275;50.882;5.984;2023-12-04T01:52:29;10.13;;;3.70;;
83362;SDS011;73275;50.882;5.984;2023-12-04T01:54:55;7.87;;;3.23;;
83362;SDS011;73275;50.882;5.984;2023-12-04T01:57:20;8.33;;;3.23;;
83362;SDS011;73275;50.882;5.984;2023-12-04T01:59:46;7.40;;;3.03;;
83362;SDS011;73275;50.882;5.984;2023-12-04T02:02:12;8.13;;;2.92;;
83362;SDS011;73275;50.882;5.984;2023-12-04T02:04:38;7.23;;;2.80;;
83362;SDS011;73275;50.882;5.984;2023-12-04T02:07:03;8.15;;;3.25;;
83362;SDS011;73275;50.882;5.984;2023-12-04T02:09:29;7.33;;;3.30;;
83362;SDS011;73275;50.882;5.984;2023-12-04T02:11:55;7.78;;;3.53;;
83362;SDS011;73275;50.882;5.984;2023-12-04T02:14:22;9.98;;;3.50;;
83362;SDS011;73275;50.882;5.984;2023-12-04T02:16:47;6.67;;;2.83;;
83362;SDS011;73275;50.882;5.984;2023-12-04T02:19:15;7.90;;;3.42;;
83362;SDS011;73275;50.882;5.984;2023-12-04T02:21:41;7.67;;;3.37;;
83362;SDS011;73275;50.882;5.984;2023-12-04T02:24:06;8.90;;;3.80;;
83362;SDS011;73275;50.882;5.984;2023-12-04T02:26:34;6.88;;;2.80;;
83362;SDS011;73275;50.882;5.984;2023-12-04T02:29:08;7.88;;;3.05;;
83362;SDS011;73275;50.882;5.984;2023-12-04T02:31:39;7.77;;;3.10;;
83362;SDS011;73275;50.882;5.984;2023-12-04T02:34:06;6.82;;;3.20;;
83362;SDS011;73275;50.882;5.984;2023-12-04T02:36:33;8.18;;;3.25;;
83362;SDS011;73275;50.882;5.984;2023-12-04T02:39:00;7.60;;;3.05;;
83362;SDS011;73275;50.882;5.984;2023-12-04T02:41:26;6.93;;;3.23;;
83362;SDS011;73275;50.882;5.984;2023-12-04T02:43:52;6.97;;;3.13;;
83362;SDS011;73275;50.882;5.984;2023-12-04T02:46:17;8.47;;;3.40;;
83362;SDS011;73275;50.882;5.984;2023-12-04T02:48:43;7.67;;;3.00;;
83362;SDS011;73275;50.882;5.984;2023-12-04T02:51:09;10.27;;;3.45;;
83362;SDS011;73275;50.882;5.984;2023-12-04T02:53:35;7.57;;;3.33;;
83362;SDS011;73275;50.882;5.984;2023-12-04T02:56:00;7.87;;;2.63;;
83362;SDS011;73275;50.882;5.984;2023-12-04T02:58:26;7.50;;;2.90;;
83362;SDS011;73275;50.882;5.984;2023-12-04T03:00:51;7.95;;;2.95;;
83362;SDS011;73275;50.882;5.984;2023-12-04T03:03:17;6.80;;;2.77;;
83362;SDS011;73275;50.882;5.984;2023-12-04T03:05:42;6.53;;;2.77;;
83362;SDS011;73275;50.882;5.984;2023-12-04T03:08:07;7.10;;;2.90;;
83362;SDS011;73275;50.882;5.984;2023-12-04T03:10:33;5.47;;;2.43;;
83362;SDS011;73275;50.882;5.984;2023-12-04T03:12:58;6.47;;;2.90;;
83362;SDS011;73275;50.882;5.984;2023-12-04T03:15:23;6.00;;;2.80;;
83362;SDS011;73275;50.882;5.984;2023-12-04T03:17:49;9.97;;;2.73;;
83362;SDS011;73275;50.882;5.984;2023-12-04T03:20:14;7.93;;;3.30;;
83362;SDS011;73275;50.882;5.984;2023-12-04T03:22:40;7.37;;;3.30;;
83362;SDS011;73275;50.882;5.984;2023-12-04T03:25:05;7.43;;;3.03;;
83362;SDS011;73275;50.882;5.984;2023-12-04T03:27:31;7.50;;;3.33;;
83362;SDS011;73275;50.882;5.984;2023-12-04T03:29:56;7.00;;;2.87;;
83362;SDS011;73275;50.882;5.984;2023-12-04T03:32:22;7.57;;;3.23;;
83362;SDS011;73275;50.882;5.984;2023-12-04T03:34:47;7.97;;;3.23;;
83362;SDS011;73275;50.882;5.984;2023-12-04T03:37:13;6.83;;;3.00;;
83362;SDS011;73275;50.882;5.984;2023-12-04T03:39:38;7.17;;;3.43;;
83362;SDS011;73275;50.882;5.984;2023-12-04T03:42:03;8.30;;;3.23;;
83362;SDS011;73275;50.882;5.984;2023-12-04T03:44:29;7.20;;;3.00;;
83362;SDS011;73275;50.882;5.984;2023-12-04T03:46:55;7.60;;;3.60;;
83362;SDS011;73275;50.882;5.984;2023-12-04T03:49:20;8.10;;;3.07;;
83362;SDS011;73275;50.882;5.984;2023-12-04T03:51:45;7.73;;;3.33;;
83362;SDS011;73275;50.882;5.984;2023-12-04T03:54:11;7.60;;;3.07;;
83362;SDS011;73275;50.882;5.984;2023-12-04T03:56:38;7.40;;;3.20;;
83362;SDS011;73275;50.882;5.984;2023-12-04T03:59:04;9.30;;;3.60;;
83362;SDS011;73275;50.882;5.984;2023-12-04T04:01:29;8.45;;;2.92;;
83362;SDS011;73275;50.882;5.984;2023-12-04T04:03:55;8.50;;;3.30;;
83362;SDS011;73275;50.882;5.984;2023-12-04T04:06:20;8.23;;;3.37;;
83362;SDS011;73275;50.882;5.984;2023-12-04T04:08:45;7.00;;;3.03;;
83362;SDS011;73275;50.882;5.984;2023-12-04T04:11:11;10.33;;;3.53;;
83362;SDS011;73275;50.882;5.984;2023-12-04T04:13:36;8.38;;;3.55;;
83362;SDS011;73275;50.882;5.984;2023-12-04T04:16:02;10.63;;;3.37;;
83362;SDS011;73275;50.882;5.984;2023-12-04T04:18:27;7.27;;;3.30;;
83362;SDS011;73275;50.882;5.984;2023-12-04T04:20:53;8.48;;;3.50;;
83362;SDS011;73275;50.882;5.984;2023-12-04T04:23:18;8.40;;;3.23;;
83362;SDS011;73275;50.882;5.984;2023-12-04T04:25:44;8.23;;;3.27;;
83362;SDS011;73275;50.882;5.984;2023-12-04T04:28:09;7.20;;;2.90;;
83362;SDS011;73275;50.882;5.984;2023-12-04T04:30:34;6.87;;;3.10;;
83362;SDS011;73275;50.882;5.984;2023-12-04T04:33:00;6.63;;;2.78;;
83362;SDS011;73275;50.882;5.984;2023-12-04T04:35:25;6.97;;;2.90;;
83362;SDS011;73275;50.882;5.984;2023-12-04T04:37:51;7.50;;;3.00;;
83362;SDS011;73275;50.882;5.984;2023-12-04T04:40:16;5.50;;;2.20;;
83362;SDS011;73275;50.882;5.984;2023-12-04T04:42:41;7.03;;;2.77;;
83362;SDS011;73275;50.882;5.984;2023-12-04T04:45:07;5.68;;;2.65;;
83362;SDS011;73275;50.882;5.984;2023-12-04T04:47:32;6.43;;;2.73;;
83362;SDS011;73275;50.882;5.984;2023-12-04T04:49:58;5.57;;;2.37;;
83362;SDS011;73275;50.882;5.984;2023-12-04T04:52:23;5.20;;;2.13;;
83362;SDS011;73275;50.882;5.984;2023-12-04T04:54:49;5.38;;;2.38;;
83362;SDS011;73275;50.882;5.984;2023-12-04T04:57:14;6.23;;;2.13;;
83362;SDS011;73275;50.882;5.984;2023-12-04T04:59:39;4.70;;;2.33;;
83362;SDS011;73275;50.882;5.984;2023-12-04T05:02:05;4.97;;;1.90;;
83362;SDS011;73275;50.882;5.984;2023-12-04T05:04:30;6.63;;;2.63;;
83362;SDS011;73275;50.882;5.984;2023-12-04T05:06:55;5.37;;;2.30;;
83362;SDS011;73275;50.882;5.984;2023-12-04T05:09:21;5.33;;;2.30;;
83362;SDS011;73275;50.882;5.984;2023-12-04T05:11:46;4.87;;;1.90;;
83362;SDS011;73275;50.882;5.984;2023-12-04T05:14:12;4.03;;;2.17;;
83362;SDS011;73275;50.882;5.984;2023-12-04T05:16:37;6.20;;;2.03;;
83362;SDS011;73275;50.882;5.984;2023-12-04T05:19:02;4.60;;;2.07;;
83362;SDS011;73275;50.882;5.984;2023-12-04T05:21:28;4.77;;;2.00;;
83362;SDS011;73275;50.882;5.984;2023-12-04T05:23:53;6.10;;;2.30;;
83362;SDS011;73275;50.882;5.984;2023-12-04T05:26:19;5.80;;;1.80;;
83362;SDS011;73275;50.882;5.984;2023-12-04T05:28:44;3.57;;;1.70;;
83362;SDS011;73275;50.882;5.984;2023-12-04T05:31:11;3.17;;;1.50;;
83362;SDS011;73275;50.882;5.984;2023-12-04T05:33:36;4.37;;;1.63;;
83362;SDS011;73275;50.882;5.984;2023-12-04T05:36:02;4.13;;;1.77;;
83362;SDS011;73275;50.882;5.984;2023-12-04T05:38:27;3.58;;;1.60;;
83362;SDS011;73275;50.882;5.984;2023-12-04T05:40:53;3.70;;;1.50;;
83362;SDS011;73275;50.882;5.984;2023-12-04T05:43:19;4.90;;;1.55;;
83362;SDS011;73275;50.882;5.984;2023-12-04T05:45:45;3.30;;;1.70;;
83362;SDS011;73275;50.882;5.984;2023-12-04T05:48:10;3.80;;;1.70;;
83362;SDS011;73275;50.882;5.984;2023-12-04T05:50:35;4.33;;;1.63;;
83362;SDS011;73275;50.882;5.984;2023-12-04T05:53:01;4.90;;;1.93;;
83362;SDS011;73275;50.882;5.984;2023-12-04T05:55:26;3.90;;;1.75;;
83362;SDS011;73275;50.882;5.984;2023-12-04T05:57:52;3.63;;;1.53;;
83362;SDS011;73275;50.882;5.984;2023-12-04T06:00:17;3.67;;;1.80;;
83362;SDS011;73275;50.882;5.984;2023-12-04T06:02:43;3.53;;;1.65;;
83362;SDS011;73275;50.882;5.984;2023-12-04T06:05:09;3.07;;;1.60;;
83362;SDS011;73275;50.882;5.984;2023-12-04T06:07:35;3.85;;;1.52;;
83362;SDS011;73275;50.882;5.984;2023-12-04T06:10:01;4.70;;;1.73;;
83362;SDS011;73275;50.882;5.984;2023-12-04T06:12:29;6.57;;;2.70;;
83362;SDS011;73275;50.882;5.984;2023-12-04T06:14:55;6.90;;;2.63;;
83362;SDS011;73275;50.882;5.984;2023-12-04T06:17:20;5.23;;;2.50;;
83362;SDS011;73275;50.882;5.984;2023-12-04T06:19:46;6.63;;;2.63;;
83362;SDS011;73275;50.882;5.984;2023-12-04T06:22:12;4.97;;;2.50;;
83362;SDS011;73275;50.882;5.984;2023-12-04T06:24:38;6.57;;;2.67;;
83362;SDS011;73275;50.882;5.984;2023-12-04T06:27:04;7.18;;;2.70;;
83362;SDS011;73275;50.882;5.984;2023-12-04T06:29:31;5.63;;;2.92;;
83362;SDS011;73275;50.882;5.984;2023-12-04T06:31:57;4.07;;;2.20;;
83362;SDS011;73275;50.882;5.984;2023-12-04T06:34:23;4.72;;;2.45;;
83362;SDS011;73275;50.882;5.984;2023-12-04T06:36:49;5.57;;;1.98;;
83362;SDS011;73275;50.882;5.984;2023-12-04T06:39:14;5.57;;;2.30;;
83362;SDS011;73275;50.882;5.984;2023-12-04T06:41:42;5.53;;;2.33;;
83362;SDS011;73275;50.882;5.984;2023-12-04T06:44:09;4.72;;;1.95;;
83362;SDS011;73275;50.882;5.984;2023-12-04T06:46:38;4.22;;;2.22;;
83362;SDS011;73275;50.882;5.984;2023-12-04T06:49:06;5.60;;;2.30;;
83362;SDS011;73275;50.882;5.984;2023-12-04T06:51:32;4.50;;;1.85;;
83362;SDS011;73275;50.882;5.984;2023-12-04T06:53:57;5.00;;;2.00;;
83362;SDS011;73275;50.882;5.984;2023-12-04T06:56:23;3.30;;;1.50;;
83362;SDS011;73275;50.882;5.984;2023-12-04T06:58:48;2.60;;;1.10;;
83362;SDS011;73275;50.882;5.984;2023-12-04T07:01:14;3.43;;;1.60;;
83362;SDS011;73275;50.882;5.984;2023-12-04T07:03:39;2.22;;;1.30;;
83362;SDS011;73275;50.882;5.984;2023-12-04T07:06:04;2.97;;;1.33;;
83362;SDS011;73275;50.882;5.984;2023-12-04T07:08:30;3.47;;;1.60;;
83362;SDS011;73275;50.882;5.984;2023-12-04T07:10:55;4.28;;;1.77;;
83362;SDS011;73275;50.882;5.984;2023-12-04T07:13:21;7.37;;;1.67;;
83362;SDS011;73275;50.882;5.984;2023-12-04T07:15:46;5.57;;;1.90;;
83362;SDS011;73275;50.882;5.984;2023-12-04T07:18:12;3.67;;;1.80;;
83362;SDS011;73275;50.882;5.984;2023-12-04T07:20:37;3.57;;;1.70;;
83362;SDS011;73275;50.882;5.984;2023-12-04T07:23:02;4.38;;;1.65;;
83362;SDS011;73275;50.882;5.984;2023-12-04T07:25:28;3.90;;;1.63;;
83362;SDS011;73275;50.882;5.984;2023-12-04T07:27:53;3.73;;;1.83;;
83362;SDS011;73275;50.882;5.984;2023-12-04T07:30:19;4.37;;;1.50;;
83362;SDS011;73275;50.882;5.984;2023-12-04T07:32:45;2.88;;;1.40;;
83362;SDS011;73275;50.882;5.984;2023-12-04T07:35:11;3.03;;;1.30;;
83362;SDS011;73275;50.882;5.984;2023-12-04T07:37:37;5.60;;;1.13;;
83362;SDS011;73275;50.882;5.984;2023-12-04T07:40:02;3.53;;;1.40;;
83362;SDS011;73275;50.882;5.984;2023-12-04T07:42:30;2.97;;;1.33;;
83362;SDS011;73275;50.882;5.984;2023-12-04T07:44:56;3.57;;;1.40;;
83362;SDS011;73275;50.882;5.984;2023-12-04T07:47:22;2.80;;;1.35;;
83362;SDS011;73275;50.882;5.984;2023-12-04T07:49:48;3.45;;;1.58;;
83362;SDS011;73275;50.882;5.984;2023-12-04T07:52:13;6.00;;;1.60;;
83362;SDS011;73275;50.882;5.984;2023-12-04T07:54:39;3.60;;;1.30;;
83362;SDS011;73275;50.882;5.984;2023-12-04T07:57:04;4.63;;;1.67;;
83362;SDS011;73275;50.882;5.984;2023-12-04T07:59:32;4.13;;;1.53;;
83362;SDS011;73275;50.882;5.984;2023-12-04T08:01:58;4.53;;;1.50;;
83362;SDS011;73275;50.882;5.984;2023-12-04T08:04:23;4.27;;;1.90;;
83362;SDS011;73275;50.882;5.984;2023-12-04T08:06:48;3.93;;;1.90;;
83362;SDS011;73275;50.882;5.984;2023-12-04T08:09:15;5.65;;;1.85;;
83362;SDS011;73275;50.882;5.984;2023-12-04T08:11:40;3.90;;;1.77;;
83362;SDS011;73275;50.882;5.984;2023-12-04T08:14:05;3.50;;;1.53;;
83362;SDS011;73275;50.882;5.984;2023-12-04T08:16:31;3.17;;;1.45;;
83362;SDS011;73275;50.882;5.984;2023-12-04T08:18:57;2.70;;;1.10;;
83362;SDS011;73275;50.882;5.984;2023-12-04T08:21:22;2.43;;;1.10;;
83362;SDS011;73275;50.882;5.984;2023-12-04T08:23:47;2.57;;;1.10;;
83362;SDS011;73275;50.882;5.984;2023-12-04T08:26:13;3.00;;;1.40;;
83362;SDS011;73275;50.882;5.984;2023-12-04T08:28:39;4.43;;;1.70;;
83362;SDS011;73275;50.882;5.984;2023-12-04T08:31:07;4.97;;;2.00;;
83362;SDS011;73275;50.882;5.984;2023-12-04T08:33:33;4.55;;;1.80;;
83362;SDS011;73275;50.882;5.984;2023-12-04T08:35:59;4.97;;;1.85;;
83362;SDS011;73275;50.882;5.984;2023-12-04T08:38:25;3.27;;;1.77;;
83362;SDS011;73275;50.882;5.984;2023-12-04T08:40:51;3.67;;;2.00;;
83362;SDS011;73275;50.882;5.984;2023-12-04T08:43:16;3.57;;;1.50;;
83362;SDS011;73275;50.882;5.984;2023-12-04T08:45:41;3.70;;;1.73;;
83362;SDS011;73275;50.882;5.984;2023-12-04T08:48:07;3.97;;;1.30;;
83362;SDS011;73275;50.882;5.984;2023-12-04T08:50:33;3.13;;;1.30;;
83362;SDS011;73275;50.882;5.984;2023-12-04T08:52:59;2.85;;;1.33;;
83362;SDS011;73275;50.882;5.984;2023-12-04T08:55:24;3.80;;;1.50;;
83362;SDS011;73275;50.882;5.984;2023-12-04T08:57:50;2.70;;;1.43;;
83362;SDS011;73275;50.882;5.984;2023-12-04T09:00:15;3.07;;;1.50;;
83362;SDS011;73275;50.882;5.984;2023-12-04T09:02:41;3.95;;;1.77;;
83362;SDS011;73275;50.882;5.984;2023-12-04T09:05:06;4.27;;;1.87;;
83362;SDS011;73275;50.882;5.984;2023-12-04T09:07:32;6.43;;;1.80;;
83362;SDS011;73275;50.882;5.984;2023-12-04T09:09:59;4.68;;;1.77;;
83362;SDS011;73275;50.882;5.984;2023-12-04T09:12:24;4.35;;;1.88;;
83362;SDS011;73275;50.882;5.984;2023-12-04T09:14:51;3.88;;;1.65;;
83362;SDS011;73275;50.882;5.984;2023-12-04T09:17:16;4.50;;;1.83;;
83362;SDS011;73275;50.882;5.984;2023-12-04T09:19:42;3.60;;;1.73;;
83362;SDS011;73275;50.882;5.984;2023-12-04T09:22:07;4.00;;;1.90;;
83362;SDS011;73275;50.882;5.984;2023-12-04T09:24:33;4.90;;;2.15;;
83362;SDS011;73275;50.882;5.984;2023-12-04T09:26:59;4.27;;;1.80;;
83362;SDS011;73275;50.882;5.984;2023-12-04T09:29:24;3.33;;;1.75;;
83362;SDS011;73275;50.882;5.984;2023-12-04T09:31:53;4.50;;;1.97;;
83362;SDS011;73275;50.882;5.984;2023-12-04T09:34:19;4.63;;;2.10;;
83362;SDS011;73275;50.882;5.984;2023-12-04T09:36:45;6.35;;;2.40;;
83362;SDS011;73275;50.882;5.984;2023-12-04T09:39:15;5.90;;;2.40;;
83362;SDS011;73275;50.882;5.984;2023-12-04T09:41:40;13.05;;;2.33;;
83362;SDS011;73275;50.882;5.984;2023-12-04T09:44:07;6.15;;;2.38;;
83362;SDS011;73275;50.882;5.984;2023-12-04T09:46:33;4.03;;;1.80;;
83362;SDS011;73275;50.882;5.984;2023-12-04T09:48:59;5.10;;;2.25;;
83362;SDS011;73275;50.882;5.984;2023-12-04T09:51:27;3.65;;;1.67;;
83362;SDS011;73275;50.882;5.984;2023-12-04T09:53:53;5.38;;;2.15;;
83362;SDS011;73275;50.882;5.984;2023-12-04T09:56:20;5.60;;;2.05;;
83362;SDS011;73275;50.882;5.984;2023-12-04T09:58:47;6.33;;;2.60;;
83362;SDS011;73275;50.882;5.984;2023-12-04T10:01:17;6.07;;;2.63;;
83362;SDS011;73275;50.882;5.984;2023-12-04T10:03:43;5.18;;;2.30;;
83362;SDS011;73275;50.882;5.984;2023-12-04T10:06:09;5.60;;;2.73;;
83362;SDS011;73275;50.882;5.984;2023-12-04T10:08:35;6.22;;;2.75;;
83362;SDS011;73275;50.882;5.984;2023-12-04T10:11:01;6.27;;;2.57;;
83362;SDS011;73275;50.882;5.984;2023-12-04T10:13:26;6.87;;;2.63;;
83362;SDS011;73275;50.882;5.984;2023-12-04T10:15:52;6.13;;;2.50;;
83362;SDS011;73275;50.882;5.984;2023-12-04T10:18:27;6.88;;;2.97;;
83362;SDS011;73275;50.882;5.984;2023-12-04T10:20:57;5.30;;;2.47;;
83362;SDS011;73275;50.882;5.984;2023-12-04T10:23:39;5.20;;;2.45;;
83362;SDS011;73275;50.882;5.984;2023-12-04T10:26:06;5.80;;;2.40;;
83362;SDS011;73275;50.882;5.984;2023-12-04T10:28:32;5.72;;;2.33;;
83362;SDS011;73275;50.882;5.984;2023-12-04T10:30:58;5.28;;;2.03;;
83362;SDS011;73275;50.882;5.984;2023-12-04T10:33:24;5.43;;;2.20;;
83362;SDS011;73275;50.882;5.984;2023-12-04T10:35:53;4.97;;;2.35;;
83362;SDS011;73275;50.882;5.984;2023-12-04T10:38:18;4.57;;;2.23;;
83362;SDS011;73275;50.882;5.984;2023-12-04T10:40:44;4.93;;;2.37;;
83362;SDS011;73275;50.882;5.984;2023-12-04T10:45:47;4.90;;;2.30;;
83362;SDS011;73275;50.882;5.984;2023-12-04T10:48:15;4.77;;;2.20;;
83362;SDS011;73275;50.882;5.984;2023-12-04T10:50:43;6.20;;;2.50;;
83362;SDS011;73275;50.882;5.984;2023-12-04T10:53:12;7.82;;;3.03;;
83362;SDS011;73275;50.882;5.984;2023-12-04T10:55:39;4.63;;;2.47;;
83362;SDS011;73275;50.882;5.984;2023-12-04T10:58:09;4.95;;;2.42;;
83362;SDS011;73275;50.882;5.984;2023-12-04T11:00:46;7.47;;;2.53;;
83362;SDS011;73275;50.882;5.984;2023-12-04T11:03:30;6.72;;;2.47;;
83362;SDS011;73275;50.882;5.984;2023-12-04T11:06:00;9.35;;;3.03;;
83362;SDS011;73275;50.882;5.984;2023-12-04T11:08:28;5.72;;;2.30;;
83362;SDS011;73275;50.882;5.984;2023-12-04T11:11:03;4.78;;;2.45;;
83362;SDS011;73275;50.882;5.984;2023-12-04T11:13:34;5.53;;;2.67;;
83362;SDS011;73275;50.882;5.984;2023-12-04T11:16:05;5.88;;;2.33;;
83362;SDS011;73275;50.882;5.984;2023-12-04T11:18:33;4.97;;;2.67;;
83362;SDS011;73275;50.882;5.984;2023-12-04T11:21:04;5.70;;;2.72;;
83362;SDS011;73275;50.882;5.984;2023-12-04T11:23:33;6.10;;;2.60;;
83362;SDS011;73275;50.882;5.984;2023-12-04T11:25:59;7.37;;;3.03;;
83362;SDS011;73275;50.882;5.984;2023-12-04T11:28:26;6.03;;;2.83;;
83362;SDS011;73275;50.882;5.984;2023-12-04T11:30:53;7.20;;;2.47;;
83362;SDS011;73275;50.882;5.984;2023-12-04T11:33:19;8.20;;;2.70;;
83362;SDS011;73275;50.882;5.984;2023-12-04T11:35:45;5.50;;;2.40;;
83362;SDS011;73275;50.882;5.984;2023-12-04T11:38:12;5.40;;;2.60;;
83362;SDS011;73275;50.882;5.984;2023-12-04T11:40:40;8.07;;;3.00;;
83362;SDS011;73275;50.882;5.984;2023-12-04T11:45:52;4.38;;;1.80;;
83362;SDS011;73275;50.882;5.984;2023-12-04T11:48:24;5.00;;;2.45;;
83362;SDS011;73275;50.882;5.984;2023-12-04T11:50:50;4.22;;;1.92;;
83362;SDS011;73275;50.882;5.984;2023-12-04T11:53:16;4.85;;;2.22;;
83362;SDS011;73275;50.882;5.984;2023-12-04T11:55:41;3.03;;;1.70;;
83362;SDS011;73275;50.882;5.984;2023-12-04T11:58:10;6.70;;;2.60;;
83362;SDS011;73275;50.882;5.984;2023-12-04T12:00:36;3.38;;;2.00;;
83362;SDS011;73275;50.882;5.984;2023-12-04T12:06:24;4.00;;;2.10;;
83362;SDS011;73275;50.882;5.984;2023-12-04T12:08:50;4.05;;;2.22;;
83362;SDS011;73275;50.882;5.984;2023-12-04T12:11:16;3.30;;;2.00;;
83362;SDS011;73275;50.882;5.984;2023-12-04T12:13:42;4.38;;;2.25;;
83362;SDS011;73275;50.882;5.984;2023-12-04T12:16:07;3.80;;;2.10;;
83362;SDS011;73275;50.882;5.984;2023-12-04T12:18:36;5.30;;;2.43;;
83362;SDS011;73275;50.882;5.984;2023-12-04T12:21:01;5.00;;;2.13;;
83362;SDS011;73275;50.882;5.984;2023-12-04T12:23:27;5.45;;;2.35;;
83362;SDS011;73275;50.882;5.984;2023-12-04T12:25:52;4.13;;;2.10;;
83362;SDS011;73275;50.882;5.984;2023-12-04T12:28:18;5.33;;;2.40;;
83362;SDS011;73275;50.882;5.984;2023-12-04T12:30:44;6.03;;;3.28;;
83362;SDS011;73275;50.882;5.984;2023-12-04T12:33:12;6.07;;;2.60;;
83362;SDS011;73275;50.882;5.984;2023-12-04T12:35:39;4.53;;;1.98;;
83362;SDS011;73275;50.882;5.984;2023-12-04T12:38:04;5.70;;;2.60;;
83362;SDS011;73275;50.882;5.984;2023-12-04T12:40:30;4.38;;;1.98;;
83362;SDS011;73275;50.882;5.984;2023-12-04T12:43:05;6.47;;;2.87;;
83362;SDS011;73275;50.882;5.984;2023-12-04T12:45:38;5.75;;;2.53;;
83362;SDS011;73275;50.882;5.984;2023-12-04T12:48:11;5.53;;;2.83;;
83362;SDS011;73275;50.882;5.984;2023-12-04T12:50:38;5.53;;;2.70;;
83362;SDS011;73275;50.882;5.984;2023-12-04T12:53:03;3.33;;;1.73;;
83362;SDS011;73275;50.882;5.984;2023-12-04T12:55:29;7.70;;;2.70;;
83362;SDS011;73275;50.882;5.984;2023-12-04T12:57:58;4.60;;;2.47;;
83362;SDS011;73275;50.882;5.984;2023-12-04T13:00:23;5.30;;;2.20;;
83362;SDS011;73275;50.882;5.984;2023-12-04T13:02:52;5.88;;;2.53;;
83362;SDS011;73275;50.882;5.984;2023-12-04T13:05:18;4.70;;;2.35;;
83362;SDS011;73275;50.882;5.984;2023-12-04T13:07:45;6.35;;;2.90;;
83362;SDS011;73275;50.882;5.984;2023-12-04T13:10:10;5.27;;;1.93;;
83362;SDS011;73275;50.882;5.984;2023-12-04T13:12:36;4.67;;;1.97;;
83362;SDS011;73275;50.882;5.984;2023-12-04T13:15:02;5.40;;;3.13;;
83362;SDS011;73275;50.882;5.984;2023-12-04T13:17:28;4.28;;;2.00;;
83362;SDS011;73275;50.882;5.984;2023-12-04T13:19:54;6.20;;;2.57;;
83362;SDS011;73275;50.882;5.984;2023-12-04T13:22:19;5.63;;;2.90;;
83362;SDS011;73275;50.882;5.984;2023-12-04T13:24:44;5.75;;;2.58;;
83362;SDS011;73275;50.882;5.984;2023-12-04T13:27:10;4.37;;;2.00;;
83362;SDS011;73275;50.882;5.984;2023-12-04T13:29:36;5.75;;;2.60;;
83362;SDS011;73275;50.882;5.984;2023-12-04T13:32:02;7.43;;;3.10;;
83362;SDS011;73275;50.882;5.984;2023-12-04T13:34:29;5.70;;;3.00;;
83362;SDS011;73275;50.882;5.984;2023-12-04T13:36:54;6.90;;;3.20;;
83362;SDS011;73275;50.882;5.984;2023-12-04T13:39:20;9.43;;;3.63;;
83362;SDS011;73275;50.882;5.984;2023-12-04T13:41:51;6.45;;;3.60;;
83362;SDS011;73275;50.882;5.984;2023-12-04T13:44:34;6.22;;;2.97;;
83362;SDS011;73275;50.882;5.984;2023-12-04T13:47:00;6.90;;;3.73;;
83362;SDS011;73275;50.882;5.984;2023-12-04T13:49:26;6.93;;;3.60;;
83362;SDS011;73275;50.882;5.984;2023-12-04T13:51:51;10.00;;;3.90;;
83362;SDS011;73275;50.882;5.984;2023-12-04T13:54:18;7.05;;;3.50;;
83362;SDS011;73275;50.882;5.984;2023-12-04T13:56:52;8.95;;;4.03;;
83362;SDS011;73275;50.882;5.984;2023-12-04T13:59:19;9.60;;;4.10;;
83362;SDS011;73275;50.882;5.984;2023-12-04T14:01:48;9.18;;;4.22;;
83362;SDS011;73275;50.882;5.984;2023-12-04T14:04:17;9.68;;;4.50;;
83362;SDS011;73275;50.882;5.984;2023-12-04T14:06:43;10.43;;;5.40;;
83362;SDS011;73275;50.882;5.984;2023-12-04T14:09:09;9.83;;;4.87;;
83362;SDS011;73275;50.882;5.984;2023-12-04T14:11:36;10.30;;;5.65;;
83362;SDS011;73275;50.882;5.984;2023-12-04T14:14:01;12.02;;;5.72;;
83362;SDS011;73275;50.882;5.984;2023-12-04T14:16:28;11.13;;;5.63;;
83362;SDS011;73275;50.882;5.984;2023-12-04T14:18:54;14.57;;;7.30;;
83362;SDS011;73275;50.882;5.984;2023-12-04T14:21:19;15.10;;;7.43;;
83362;SDS011;73275;50.882;5.984;2023-12-04T14:23:44;12.30;;;5.87;;
83362;SDS011;73275;50.882;5.984;2023-12-04T14:26:10;15.30;;;7.37;;
83362;SDS011;73275;50.882;5.984;2023-12-04T14:28:35;14.00;;;6.57;;
83362;SDS011;73275;50.882;5.984;2023-12-04T14:31:01;14.50;;;6.15;;
83362;SDS011;73275;50.882;5.984;2023-12-04T14:33:27;13.87;;;7.00;;
83362;SDS011;73275;50.882;5.984;2023-12-04T14:35:52;15.40;;;7.10;;
83362;SDS011;73275;50.882;5.984;2023-12-04T14:38:18;14.10;;;7.50;;
83362;SDS011;73275;50.882;5.984;2023-12-04T14:40:43;16.77;;;7.67;;
83362;SDS011;73275;50.882;5.984;2023-12-04T14:43:09;14.88;;;7.05;;
83362;SDS011;73275;50.882;5.984;2023-12-04T14:45:36;14.43;;;7.30;;
83362;SDS011;73275;50.882;5.984;2023-12-04T14:48:01;19.67;;;8.30;;